createdAt,value
2019-03-06T00:01:24.847Z,7.27
2019-03-06T00:03:54.236Z,6.60
2019-03-06T00:06:23.988Z,6.13
2019-03-06T00:08:53.481Z,5.73
2019-03-06T00:11:22.980Z,5.70
2019-03-06T00:13:52.457Z,5.93
2019-03-06T00:16:21.890Z,5.67
2019-03-06T00:18:51.289Z,6.30
2019-03-06T00:21:20.774Z,7.30
2019-03-06T00:23:50.276Z,7.13
2019-03-06T00:26:19.710Z,7.57
2019-03-06T00:28:49.150Z,8.03
2019-03-06T00:31:18.609Z,8.43
2019-03-06T00:33:48.096Z,8.90
2019-03-06T00:36:25.221Z,8.83
2019-03-06T00:38:54.601Z,10.80
2019-03-06T00:41:31.558Z,12.03
2019-03-06T00:44:01.239Z,13.20
2019-03-06T00:46:30.696Z,12.30
2019-03-06T00:49:00.168Z,13.20
2019-03-06T00:51:29.630Z,12.43
2019-03-06T00:53:59.064Z,11.03
2019-03-06T00:56:28.963Z,11.43
2019-03-06T00:58:58.469Z,10.40
2019-03-06T01:01:27.902Z,10.47
2019-03-06T01:03:57.330Z,10.30
2019-03-06T01:06:28.205Z,11.43
2019-03-06T01:08:57.687Z,10.73
2019-03-06T01:11:27.268Z,11.10
2019-03-06T01:13:56.729Z,10.50
2019-03-06T01:16:26.195Z,10.83
2019-03-06T01:18:55.730Z,11.17
2019-03-06T01:21:25.273Z,13.17
2019-03-06T01:23:54.679Z,13.07
2019-03-06T01:26:24.183Z,12.87
2019-03-06T01:28:54.042Z,13.50
2019-03-06T01:31:23.586Z,14.80
2019-03-06T01:34:06.175Z,13.67
2019-03-06T01:36:45.916Z,12.17
2019-03-06T01:39:26.935Z,13.93
2019-03-06T01:42:04.903Z,12.13
2019-03-06T01:44:52.794Z,13.30
2019-03-06T01:47:22.337Z,13.63
2019-03-06T01:49:51.738Z,12.17
2019-03-06T01:52:21.247Z,13.20
2019-03-06T01:54:50.736Z,12.17
2019-03-06T01:57:20.174Z,12.57
2019-03-06T01:59:49.649Z,13.00
2019-03-06T02:02:19.559Z,14.13
2019-03-06T02:04:49.035Z,13.83
2019-03-06T02:07:18.824Z,14.57
2019-03-06T02:09:48.220Z,14.33
2019-03-06T02:12:17.846Z,13.87
2019-03-06T02:14:47.343Z,13.53
2019-03-06T02:17:16.749Z,14.23
2019-03-06T02:19:46.255Z,13.93
2019-03-06T02:22:15.961Z,14.33
2019-03-06T02:24:45.342Z,13.80
2019-03-06T02:27:14.902Z,13.60
2019-03-06T02:29:44.422Z,12.33
2019-03-06T02:32:14.128Z,11.00
2019-03-06T02:34:43.519Z,11.10
2019-03-06T02:37:13.010Z,13.93
2019-03-06T02:39:42.490Z,17.97
2019-03-06T02:42:11.959Z,18.90
2019-03-06T02:44:41.377Z,21.20
2019-03-06T02:47:10.821Z,21.87
2019-03-06T02:49:40.317Z,29.10
2019-03-06T02:52:09.783Z,34.07
2019-03-06T02:54:39.214Z,33.77
2019-03-06T02:57:08.689Z,30.63
2019-03-06T02:59:43.857Z,27.77
2019-03-06T03:02:26.631Z,24.47
2019-03-06T03:05:01.459Z,20.03
2019-03-06T03:07:30.869Z,17.00
2019-03-06T03:10:00.507Z,16.07
2019-03-06T03:12:30.027Z,14.10
2019-03-06T03:14:59.511Z,13.30
2019-03-06T03:17:28.958Z,10.83
2019-03-06T03:19:58.388Z,10.20
2019-03-06T03:22:27.851Z,10.87
2019-03-06T03:24:57.426Z,9.47
2019-03-06T03:27:26.892Z,8.93
2019-03-06T03:29:56.290Z,9.57
2019-03-06T03:32:25.744Z,9.20
2019-03-06T03:34:55.349Z,10.43
2019-03-06T03:37:24.848Z,13.20
2019-03-06T03:39:54.339Z,11.03
2019-03-06T03:42:23.845Z,10.97
2019-03-06T03:44:53.247Z,9.20
2019-03-06T03:47:22.682Z,8.67
2019-03-06T03:49:52.228Z,8.93
2019-03-06T03:52:21.718Z,8.47
2019-03-06T03:54:51.116Z,9.30
2019-03-06T03:57:20.810Z,8.90
2019-03-06T03:59:50.281Z,9.43
2019-03-06T04:02:19.717Z,9.50
2019-03-06T04:04:49.170Z,10.83
2019-03-06T04:07:18.657Z,10.83
2019-03-06T04:09:48.154Z,10.77
2019-03-06T04:12:17.628Z,11.70
2019-03-06T04:14:47.092Z,11.50
2019-03-06T04:17:16.519Z,12.47
2019-03-06T04:19:45.963Z,12.23
2019-03-06T04:22:15.407Z,16.00
2019-03-06T04:24:44.900Z,22.23
2019-03-06T04:27:14.379Z,31.80
2019-03-06T04:29:43.807Z,40.10
2019-03-06T04:32:13.348Z,40.37
2019-03-06T04:34:42.893Z,42.10
2019-03-06T04:37:12.402Z,41.67
2019-03-06T04:39:41.808Z,39.67
2019-03-06T04:42:11.333Z,42.23
2019-03-06T04:44:40.835Z,39.70
2019-03-06T04:47:10.259Z,45.87
2019-03-06T04:49:39.687Z,43.93
2019-03-06T04:52:09.434Z,42.77
2019-03-06T04:54:38.906Z,43.00
2019-03-06T04:57:09.412Z,39.40
2019-03-06T04:59:39.665Z,40.90
2019-03-06T05:02:09.153Z,39.37
2019-03-06T05:04:40.410Z,39.53
2019-03-06T05:07:09.860Z,41.97
2019-03-06T05:09:39.551Z,37.10
2019-03-06T05:12:09.062Z,36.00
2019-03-06T05:14:38.669Z,33.97
2019-03-06T05:17:30.426Z,32.27
2019-03-06T05:19:59.816Z,35.27
2019-03-06T05:22:29.252Z,35.33
2019-03-06T05:24:58.787Z,34.07
2019-03-06T05:27:28.228Z,35.53
2019-03-06T05:29:57.648Z,34.73
2019-03-06T05:32:34.619Z,29.70
2019-03-06T05:35:10.588Z,29.23
2019-03-06T05:38:09.991Z,25.90
2019-03-06T05:40:39.901Z,23.33
2019-03-06T05:43:09.785Z,24.80
2019-03-06T05:45:39.241Z,26.13
2019-03-06T05:48:08.723Z,22.60
2019-03-06T05:50:39.112Z,23.83
2019-03-06T05:53:08.610Z,20.47
2019-03-06T05:55:38.052Z,23.13
2019-03-06T05:58:07.601Z,19.00
2019-03-06T06:00:37.159Z,15.40
2019-03-06T06:03:06.599Z,15.07
2019-03-06T06:05:35.987Z,15.00
2019-03-06T06:08:05.619Z,14.23
2019-03-06T06:10:35.286Z,12.00
2019-03-06T06:13:04.754Z,11.73
2019-03-06T06:15:34.279Z,11.23
2019-03-06T06:18:03.769Z,12.30
2019-03-06T06:20:33.200Z,13.27
2019-03-06T06:23:12.215Z,13.23
2019-03-06T06:25:41.720Z,12.13
2019-03-06T06:28:11.343Z,12.77
2019-03-06T06:30:40.789Z,11.37
2019-03-06T06:33:10.518Z,12.70
2019-03-06T06:35:40.014Z,11.70
2019-03-06T06:38:09.871Z,11.67
2019-03-06T06:40:39.322Z,10.90
2019-03-06T06:43:08.802Z,10.97
2019-03-06T06:45:39.319Z,10.43
2019-03-06T06:48:13.437Z,10.17
2019-03-06T06:50:46.532Z,10.80
2019-03-06T06:53:45.340Z,10.67
2019-03-06T06:56:58.750Z,11.07
2019-03-06T06:59:37.973Z,11.20
2019-03-06T07:03:14.012Z,11.23
2019-03-06T07:05:54.365Z,11.57
2019-03-06T07:08:51.622Z,10.87
2019-03-06T07:11:39.986Z,10.83
2019-03-06T07:14:32.131Z,10.57
2019-03-06T07:17:26.919Z,11.23
2019-03-06T07:20:24.092Z,9.70
2019-03-06T07:23:10.247Z,11.53
2019-03-06T07:25:48.338Z,10.17
2019-03-06T07:28:27.869Z,10.30
2019-03-06T07:31:19.107Z,10.23
2019-03-06T07:34:10.037Z,8.50
2019-03-06T07:36:51.868Z,7.97
2019-03-06T07:39:44.177Z,9.50
2019-03-06T07:42:47.977Z,7.93
2019-03-06T07:46:12.087Z,9.07
2019-03-06T07:49:02.044Z,7.67
2019-03-06T07:52:05.465Z,8.77
2019-03-06T07:54:49.873Z,7.83
2019-03-06T07:57:27.546Z,9.73
2019-03-06T07:59:57.285Z,8.77
2019-03-06T08:02:50.446Z,8.87
2019-03-06T08:05:20.330Z,8.83
2019-03-06T08:07:49.855Z,8.37
2019-03-06T08:10:23.333Z,8.63
2019-03-06T08:13:01.422Z,8.83
2019-03-06T08:15:52.520Z,9.10
2019-03-06T08:18:39.274Z,9.07
2019-03-06T08:21:24.337Z,8.50
2019-03-06T08:24:19.038Z,8.67
2019-03-06T08:26:48.511Z,8.47
2019-03-06T08:29:32.393Z,8.53
2019-03-06T08:32:09.774Z,7.67
2019-03-06T08:34:39.261Z,8.23
2019-03-06T08:37:08.676Z,7.20
2019-03-06T08:39:38.409Z,7.53
2019-03-06T08:42:09.262Z,7.73
2019-03-06T08:44:38.740Z,8.27
2019-03-06T08:47:22.952Z,6.70
2019-03-06T08:50:08.444Z,7.03
2019-03-06T08:52:49.169Z,7.80
2019-03-06T08:55:40.595Z,7.40
2019-03-06T08:58:47.275Z,7.40
2019-03-06T09:01:43.808Z,7.17
2019-03-06T09:04:24.000Z,7.33
2019-03-06T09:07:02.934Z,7.23
2019-03-06T09:09:51.377Z,7.00
2019-03-06T09:12:45.360Z,8.43
2019-03-06T09:15:51.994Z,7.27
2019-03-06T09:18:55.288Z,8.23
2019-03-06T09:21:30.181Z,7.60
2019-03-06T09:24:16.836Z,8.67
2019-03-06T09:27:05.211Z,7.40
2019-03-06T09:29:53.682Z,8.30
2019-03-06T09:32:43.779Z,8.27
2019-03-06T09:35:36.661Z,7.93
2019-03-06T09:38:20.476Z,8.90
2019-03-06T09:41:00.885Z,7.33
2019-03-06T09:43:52.260Z,7.50
2019-03-06T09:46:36.817Z,8.83
2019-03-06T09:49:24.002Z,10.53
2019-03-06T09:52:04.053Z,12.13
2019-03-06T09:54:55.039Z,11.63
2019-03-06T09:57:37.676Z,12.43
2019-03-06T10:00:32.873Z,12.27
2019-03-06T10:03:21.450Z,10.57
2019-03-06T10:05:59.298Z,10.00
2019-03-06T10:08:53.111Z,11.40
2019-03-06T10:11:36.493Z,11.17
2019-03-06T10:14:13.205Z,10.87
2019-03-06T10:17:07.682Z,12.07
2019-03-06T10:19:45.636Z,10.13
2019-03-06T10:22:15.169Z,9.43
2019-03-06T10:24:45.504Z,9.40
2019-03-06T10:27:15.540Z,8.80
2019-03-06T10:29:45.052Z,8.10
2019-03-06T10:32:14.545Z,7.80
2019-03-06T10:34:44.025Z,7.53
2019-03-06T10:37:13.627Z,7.00
2019-03-06T10:39:43.434Z,6.40
2019-03-06T10:42:12.900Z,5.97
2019-03-06T10:44:42.590Z,4.60
2019-03-06T10:47:11.958Z,5.40
2019-03-06T10:49:41.399Z,5.57
2019-03-06T10:52:10.926Z,4.60
2019-03-06T10:54:44.720Z,5.43
2019-03-06T10:57:12.062Z,5.10
2019-03-06T10:59:41.932Z,5.70
2019-03-06T11:02:11.607Z,4.93
2019-03-06T11:04:54.729Z,5.03
2019-03-06T11:07:24.302Z,5.27
2019-03-06T11:09:53.858Z,5.20
2019-03-06T11:12:23.465Z,4.57
2019-03-06T11:14:52.976Z,4.60
2019-03-06T11:17:22.588Z,4.93
2019-03-06T11:19:52.429Z,4.63
2019-03-06T11:22:21.895Z,3.90
2019-03-06T11:24:51.331Z,4.30
2019-03-06T11:27:20.860Z,5.13
2019-03-06T11:29:50.379Z,5.13
2019-03-06T11:32:19.860Z,4.73
2019-03-06T11:34:49.756Z,4.80
2019-03-06T11:37:19.434Z,4.83
2019-03-06T11:39:48.858Z,4.33
2019-03-06T11:42:18.292Z,4.57
2019-03-06T11:44:47.715Z,5.00
2019-03-06T11:47:17.193Z,5.20
2019-03-06T11:49:46.627Z,4.87
2019-03-06T11:52:16.109Z,4.60
2019-03-06T11:54:45.525Z,4.77
2019-03-06T11:57:14.995Z,4.57
2019-03-06T11:59:46.832Z,4.30
2019-03-06T12:02:17.284Z,4.63
2019-03-06T12:04:46.767Z,4.57
2019-03-06T12:07:16.169Z,4.40
2019-03-06T12:09:45.602Z,4.57
2019-03-06T12:12:15.122Z,4.10
2019-03-06T12:14:44.656Z,4.50
2019-03-06T12:17:14.323Z,3.90
2019-03-06T12:19:43.849Z,5.03
2019-03-06T12:22:13.435Z,4.27
2019-03-06T12:24:42.898Z,4.20
2019-03-06T12:27:12.450Z,4.37
2019-03-06T12:29:41.889Z,3.90
2019-03-06T12:32:11.680Z,4.53
2019-03-06T12:34:41.147Z,4.23
2019-03-06T12:37:10.566Z,3.80
2019-03-06T12:39:39.973Z,3.83
2019-03-06T12:42:14.285Z,3.60
2019-03-06T12:44:40.681Z,3.50
2019-03-06T12:47:11.013Z,3.10
2019-03-06T12:49:40.605Z,4.07
2019-03-06T12:52:09.993Z,2.87
2019-03-06T12:54:39.455Z,3.57
2019-03-06T12:57:08.967Z,3.10
2019-03-06T12:59:38.442Z,2.70
2019-03-06T13:02:07.831Z,3.30
2019-03-06T13:04:37.318Z,3.53
2019-03-06T13:07:06.800Z,2.47
2019-03-06T13:09:37.650Z,2.87
2019-03-06T13:12:07.455Z,2.70
2019-03-06T13:14:36.918Z,2.80
2019-03-06T13:17:06.585Z,2.70
2019-03-06T13:19:37.158Z,2.00
2019-03-06T13:22:11.351Z,2.87
2019-03-06T13:24:37.805Z,2.27
2019-03-06T13:27:07.314Z,3.63
2019-03-06T13:29:36.789Z,2.73
2019-03-06T13:32:11.643Z,2.60
2019-03-06T13:34:59.953Z,2.53
2019-03-06T13:37:29.427Z,2.47
2019-03-06T13:39:58.870Z,1.80
2019-03-06T13:42:28.304Z,2.40
2019-03-06T13:44:57.740Z,2.27
2019-03-06T13:47:27.255Z,2.43
2019-03-06T13:49:56.952Z,2.10
2019-03-06T13:52:26.338Z,2.57
2019-03-06T13:54:55.813Z,3.13
2019-03-06T13:57:25.267Z,1.90
2019-03-06T13:59:54.691Z,2.30
2019-03-06T14:02:24.244Z,2.17
2019-03-06T14:04:53.935Z,2.17
2019-03-06T14:07:23.305Z,2.30
2019-03-06T14:09:52.729Z,2.37
2019-03-06T14:12:22.240Z,2.10
2019-03-06T14:14:51.657Z,2.20
2019-03-06T14:17:21.045Z,2.20
2019-03-06T14:19:50.559Z,2.00
2019-03-06T14:22:20.148Z,2.00
2019-03-06T14:24:49.574Z,2.10
2019-03-06T14:27:18.983Z,2.63
2019-03-06T14:29:48.410Z,2.50
2019-03-06T14:32:17.990Z,2.30
2019-03-06T14:34:47.729Z,2.50
2019-03-06T14:37:17.263Z,2.33
2019-03-06T14:39:46.668Z,2.23
2019-03-06T14:42:16.253Z,2.63
2019-03-06T14:44:46.745Z,2.50
2019-03-06T14:47:17.613Z,2.90
2019-03-06T14:49:46.984Z,2.53
2019-03-06T14:52:16.474Z,1.83
2019-03-06T14:54:46.090Z,2.10
2019-03-06T14:57:15.561Z,2.10
2019-03-06T14:59:44.930Z,2.53
2019-03-06T15:02:14.476Z,1.70
2019-03-06T15:04:43.946Z,2.13
2019-03-06T15:07:13.437Z,2.00
2019-03-06T15:09:42.983Z,1.70
2019-03-06T15:12:12.396Z,2.00
2019-03-06T15:14:41.926Z,1.87
2019-03-06T15:17:11.411Z,2.43
2019-03-06T15:19:40.967Z,1.87
2019-03-06T15:22:10.485Z,1.87
2019-03-06T15:24:41.626Z,2.10
2019-03-06T15:27:11.249Z,1.87
2019-03-06T15:29:40.929Z,2.27
2019-03-06T15:32:10.515Z,1.57
2019-03-06T15:34:39.918Z,1.83
2019-03-06T15:37:09.323Z,2.07
2019-03-06T15:39:46.705Z,1.73
2019-03-06T15:42:12.431Z,1.50
2019-03-06T15:44:41.872Z,1.67
2019-03-06T15:47:11.507Z,1.70
2019-03-06T15:49:41.165Z,1.80
2019-03-06T15:52:11.577Z,1.60
2019-03-06T15:54:41.088Z,1.60
2019-03-06T15:57:10.498Z,1.50
2019-03-06T15:59:40.229Z,1.40
2019-03-06T16:02:12.403Z,1.70
2019-03-06T16:04:41.843Z,1.80
2019-03-06T16:07:11.280Z,1.80
2019-03-06T16:09:40.960Z,2.30
2019-03-06T16:12:12.218Z,3.83
2019-03-06T16:14:41.579Z,2.87
2019-03-06T16:17:11.055Z,3.10
2019-03-06T16:19:40.756Z,2.40
2019-03-06T16:22:10.628Z,3.50
2019-03-06T16:24:40.020Z,3.67
2019-03-06T16:27:09.404Z,3.90
2019-03-06T16:29:38.981Z,3.50
2019-03-06T16:32:08.915Z,3.73
2019-03-06T16:34:38.518Z,4.07
2019-03-06T16:37:08.435Z,4.73
2019-03-06T16:39:37.793Z,4.00
2019-03-06T16:42:07.303Z,4.20
2019-03-06T16:44:36.827Z,5.43
2019-03-06T16:47:07.090Z,9.50
2019-03-06T16:49:36.722Z,8.07
2019-03-06T16:52:06.318Z,7.70
2019-03-06T16:54:35.849Z,7.47
2019-03-06T16:57:05.359Z,14.23
2019-03-06T16:59:34.807Z,9.83
2019-03-06T17:02:04.234Z,7.57
2019-03-06T17:04:33.923Z,7.17
2019-03-06T17:07:03.774Z,8.13
2019-03-06T17:09:33.256Z,7.73
2019-03-06T17:12:02.632Z,7.10
2019-03-06T17:14:32.189Z,7.50
2019-03-06T17:17:01.583Z,5.90
2019-03-06T17:19:31.069Z,7.77
2019-03-06T17:22:00.720Z,7.93
2019-03-06T17:24:30.122Z,7.50
2019-03-06T17:26:59.508Z,13.30
2019-03-06T17:29:29.074Z,11.77
2019-03-06T17:31:58.940Z,11.03
2019-03-06T17:34:28.483Z,10.57
2019-03-06T17:36:58.024Z,9.20
2019-03-06T17:39:27.608Z,8.30
2019-03-06T17:41:57.118Z,15.73
2019-03-06T17:44:26.582Z,19.03
2019-03-06T17:46:56.109Z,23.63
2019-03-06T17:49:25.723Z,27.40
2019-03-06T17:51:55.296Z,29.07
2019-03-06T17:54:24.688Z,28.93
2019-03-06T17:56:54.216Z,34.37
2019-03-06T17:59:24.051Z,29.80
2019-03-06T18:01:53.549Z,31.77
2019-03-06T18:04:24.537Z,35.07
2019-03-06T18:06:54.222Z,35.53
2019-03-06T18:09:23.650Z,33.07
2019-03-06T18:11:53.105Z,36.43
2019-03-06T18:14:22.841Z,38.87
2019-03-06T18:16:52.911Z,39.03
2019-03-06T18:19:22.420Z,41.60
2019-03-06T18:21:51.886Z,44.30
2019-03-06T18:24:21.714Z,42.13
2019-03-06T18:26:51.275Z,40.10
2019-03-06T18:29:20.719Z,38.83
2019-03-06T18:31:50.206Z,35.57
2019-03-06T18:34:19.808Z,34.27
2019-03-06T18:36:49.402Z,34.80
2019-03-06T18:39:19.773Z,39.33
2019-03-06T18:41:49.667Z,41.77
2019-03-06T18:44:19.100Z,29.37
2019-03-06T18:46:48.518Z,27.13
2019-03-06T18:49:18.057Z,33.07
2019-03-06T18:51:47.621Z,35.10
2019-03-06T18:54:17.025Z,31.27
2019-03-06T18:56:46.427Z,40.17
2019-03-06T18:59:15.975Z,31.30
2019-03-06T19:01:45.464Z,29.30
2019-03-06T19:04:14.867Z,28.87
2019-03-06T19:06:44.373Z,52.70
2019-03-06T19:09:13.874Z,27.37
2019-03-06T19:11:43.870Z,30.87
2019-03-06T19:14:13.318Z,23.40
2019-03-06T19:16:42.930Z,26.37
2019-03-06T19:19:12.399Z,26.20
2019-03-06T19:21:41.854Z,28.00
2019-03-06T19:24:11.359Z,25.30
2019-03-06T19:26:41.323Z,24.47
2019-03-06T19:29:10.852Z,24.67
2019-03-06T19:31:40.267Z,16.67
2019-03-06T19:34:09.788Z,15.90
2019-03-06T19:36:39.339Z,16.87
2019-03-06T19:39:09.148Z,22.50
2019-03-06T19:41:38.712Z,24.00
2019-03-06T19:44:08.466Z,23.60
2019-03-06T19:46:38.019Z,23.77
2019-03-06T19:49:07.596Z,23.93
2019-03-06T19:51:37.085Z,27.97
2019-03-06T19:54:06.707Z,26.07
2019-03-06T19:56:36.225Z,29.90
2019-03-06T19:59:05.937Z,33.30
2019-03-06T20:01:35.586Z,32.70
2019-03-06T20:04:05.213Z,31.27
2019-03-06T20:06:34.656Z,31.40
2019-03-06T20:09:05.690Z,31.47
2019-03-06T20:11:35.763Z,37.17
2019-03-06T20:14:05.360Z,37.80
2019-03-06T20:16:34.846Z,41.47
2019-03-06T20:19:04.542Z,36.67
2019-03-06T20:21:34.095Z,39.53
2019-03-06T20:24:03.492Z,38.30
2019-03-06T20:26:33.014Z,36.53
2019-03-06T20:29:02.626Z,31.67
2019-03-06T20:31:32.260Z,29.17
2019-03-06T20:34:01.673Z,25.23
2019-03-06T20:36:32.110Z,27.53
2019-03-06T20:39:01.522Z,25.20
2019-03-06T20:41:30.932Z,27.00
2019-03-06T20:44:00.509Z,26.13
2019-03-06T20:46:30.130Z,26.57
2019-03-06T20:48:59.532Z,26.43
2019-03-06T20:51:30.281Z,25.47
2019-03-06T20:53:59.888Z,28.97
2019-03-06T20:56:29.424Z,29.60
2019-03-06T20:58:59.275Z,27.93
2019-03-06T21:01:29.065Z,32.00
2019-03-06T21:03:58.617Z,34.47
2019-03-06T21:06:33.614Z,34.50
2019-03-06T21:08:59.337Z,36.73
2019-03-06T21:11:28.896Z,37.17
2019-03-06T21:13:58.462Z,39.27
2019-03-06T21:16:27.974Z,35.87
2019-03-06T21:18:57.387Z,32.60
2019-03-06T21:21:26.846Z,35.23
2019-03-06T21:23:56.360Z,41.60
2019-03-06T21:26:25.855Z,40.80
2019-03-06T21:28:55.364Z,38.07
2019-03-06T21:31:24.765Z,38.33
2019-03-06T21:33:54.269Z,33.73
2019-03-06T21:36:23.816Z,37.60
2019-03-06T21:38:53.238Z,37.90
2019-03-06T21:41:22.716Z,32.93
2019-03-06T21:43:52.267Z,39.77
2019-03-06T21:46:21.865Z,26.67
2019-03-06T21:48:51.626Z,29.13
2019-03-06T21:51:21.074Z,28.63
2019-03-06T21:53:50.991Z,29.00
2019-03-06T21:56:20.426Z,26.40
2019-03-06T21:58:50.056Z,23.37
2019-03-06T22:01:19.584Z,16.90
2019-03-06T22:03:49.126Z,15.77
2019-03-06T22:06:18.591Z,10.70
2019-03-06T22:08:48.153Z,11.83
2019-03-06T22:11:17.672Z,17.93
2019-03-06T22:13:47.140Z,15.33
2019-03-06T22:16:16.547Z,14.93
2019-03-06T22:18:46.070Z,14.37
2019-03-06T22:21:15.628Z,13.37
2019-03-06T22:23:45.033Z,12.63
2019-03-06T22:26:14.449Z,10.37
2019-03-06T22:28:44.332Z,9.07
2019-03-06T22:31:13.882Z,10.10
2019-03-06T22:33:43.488Z,9.50
2019-03-06T22:36:13.035Z,9.37
2019-03-06T22:38:42.449Z,10.77
2019-03-06T22:41:11.883Z,12.30
2019-03-06T22:43:41.595Z,13.93
2019-03-06T22:46:11.111Z,14.93
2019-03-06T22:48:40.533Z,15.63
2019-03-06T22:51:10.049Z,19.83
2019-03-06T22:53:39.589Z,20.73
2019-03-06T22:56:09.475Z,18.83
2019-03-06T22:58:38.899Z,15.73
2019-03-06T23:01:40.273Z,16.40
2019-03-06T23:04:09.847Z,14.77
2019-03-06T23:06:39.541Z,13.53
2019-03-06T23:09:12.307Z,11.83
2019-03-06T23:11:41.843Z,12.57
2019-03-06T23:14:11.352Z,12.47
2019-03-06T23:16:40.750Z,12.17
2019-03-06T23:19:10.339Z,11.80
2019-03-06T23:21:39.826Z,12.33
2019-03-06T23:24:09.226Z,11.77
2019-03-06T23:26:42.851Z,12.13
2019-03-06T23:29:09.897Z,10.37
2019-03-06T23:31:39.672Z,11.93
2019-03-06T23:34:09.723Z,11.43
2019-03-06T23:36:39.225Z,11.00
2019-03-06T23:39:14.017Z,11.27
2019-03-06T23:41:43.594Z,11.30
2019-03-06T23:44:14.724Z,11.30
2019-03-06T23:46:44.125Z,12.03
2019-03-06T23:49:13.686Z,11.63
2019-03-06T23:52:02.097Z,11.83
2019-03-06T23:54:31.829Z,12.97
2019-03-06T23:57:02.190Z,11.60
2019-03-06T23:59:31.592Z,12.23
